createdAt,value
2018-12-01T00:00:35.220Z,13.90
2018-12-01T00:03:03.428Z,16.03
2018-12-01T00:05:31.653Z,16.50
2018-12-01T00:07:59.826Z,18.10
2018-12-01T00:10:28.027Z,14.00
2018-12-01T00:12:56.241Z,15.10
2018-12-01T00:15:25.777Z,16.87
2018-12-01T00:17:54.476Z,19.50
2018-12-01T00:20:24.136Z,16.33
2018-12-01T00:22:52.340Z,16.53
2018-12-01T00:25:20.561Z,15.77
2018-12-01T00:27:48.798Z,14.30
2018-12-01T00:30:17.835Z,15.27
2018-12-01T00:32:47.024Z,19.77
2018-12-01T00:35:15.224Z,16.10
2018-12-01T00:37:43.417Z,16.77
2018-12-01T00:40:13.727Z,18.03
2018-12-01T00:42:41.938Z,18.40
2018-12-01T00:45:11.424Z,15.10
2018-12-01T00:47:39.616Z,14.20
2018-12-01T00:50:11.364Z,19.97
2018-12-01T00:52:39.544Z,14.03
2018-12-01T00:55:10.278Z,15.70
2018-12-01T00:57:38.449Z,18.27
2018-12-01T01:00:19.045Z,14.00
2018-12-01T01:02:53.062Z,13.53
2018-12-01T01:05:22.090Z,14.53
2018-12-01T01:07:50.260Z,23.30
2018-12-01T01:10:18.762Z,13.50
2018-12-01T01:12:46.987Z,18.50
2018-12-01T01:15:15.186Z,17.33
2018-12-01T01:17:43.437Z,14.20
2018-12-01T01:20:13.713Z,19.67
2018-12-01T01:22:41.913Z,16.37
2018-12-01T01:25:11.193Z,14.93
2018-12-01T01:27:39.412Z,16.03
2018-12-01T01:30:10.523Z,14.87
2018-12-01T01:32:38.770Z,19.83
2018-12-01T01:35:06.989Z,13.73
2018-12-01T01:37:35.187Z,14.40
2018-12-01T01:40:03.403Z,14.07
2018-12-01T01:42:31.577Z,13.63
2018-12-01T01:44:59.776Z,13.27
2018-12-01T01:47:28.449Z,13.20
2018-12-01T01:49:56.672Z,13.33
2018-12-01T01:52:24.850Z,16.53
2018-12-01T01:54:53.053Z,13.07
2018-12-01T01:57:21.268Z,19.60
2018-12-01T01:59:49.455Z,12.40
2018-12-01T02:02:17.660Z,16.07
2018-12-01T02:04:45.866Z,16.63
2018-12-01T02:07:14.066Z,16.50
2018-12-01T02:09:42.276Z,13.90
2018-12-01T02:12:10.461Z,17.13
2018-12-01T02:14:38.675Z,16.83
2018-12-01T02:17:06.862Z,16.17
2018-12-01T02:19:35.024Z,15.10
2018-12-01T02:22:03.398Z,14.37
2018-12-01T02:24:31.581Z,19.47
2018-12-01T02:26:59.756Z,17.30
2018-12-01T02:29:27.919Z,18.30
2018-12-01T02:31:56.107Z,20.27
2018-12-01T02:34:24.301Z,15.37
2018-12-01T02:36:52.483Z,15.20
2018-12-01T02:39:20.742Z,12.73
2018-12-01T02:41:48.857Z,13.40
2018-12-01T02:44:28.338Z,14.40
2018-12-01T02:47:08.602Z,13.53
2018-12-01T02:49:37.049Z,13.50
2018-12-01T02:52:06.470Z,14.13
2018-12-01T02:54:34.932Z,14.30
2018-12-01T02:57:03.118Z,12.43
2018-12-01T02:59:31.497Z,16.93
2018-12-01T03:01:59.698Z,19.90
2018-12-01T03:04:27.888Z,13.63
2018-12-01T03:06:56.110Z,13.23
2018-12-01T03:09:24.324Z,13.13
2018-12-01T03:11:52.558Z,13.93
2018-12-01T03:14:20.898Z,17.33
2018-12-01T03:16:49.157Z,16.20
2018-12-01T03:19:17.494Z,16.13
2018-12-01T03:21:45.719Z,18.70
2018-12-01T03:24:13.896Z,17.30
2018-12-01T03:26:42.085Z,17.80
2018-12-01T03:29:10.959Z,17.60
2018-12-01T03:31:39.305Z,18.73
2018-12-01T03:34:07.499Z,16.43
2018-12-01T03:36:35.724Z,16.40
2018-12-01T03:39:04.261Z,18.30
2018-12-01T03:41:32.466Z,17.30
2018-12-01T03:44:00.758Z,13.30
2018-12-01T03:46:28.962Z,14.17
2018-12-01T03:48:57.265Z,24.40
2018-12-01T03:51:25.476Z,13.50
2018-12-01T03:53:53.687Z,16.47
2018-12-01T03:56:21.866Z,13.27
2018-12-01T03:58:50.029Z,21.60
2018-12-01T04:01:18.213Z,18.00
2018-12-01T04:03:46.385Z,14.20
2018-12-01T04:06:14.803Z,16.33
2018-12-01T04:08:42.980Z,19.77
2018-12-01T04:11:11.192Z,14.17
2018-12-01T04:13:39.388Z,22.57
2018-12-01T04:16:07.705Z,19.70
2018-12-01T04:18:35.979Z,17.30
2018-12-01T04:21:04.193Z,21.17
2018-12-01T04:23:32.373Z,13.20
2018-12-01T04:26:00.617Z,16.93
2018-12-01T04:28:28.827Z,18.73
2018-12-01T04:30:57.020Z,13.63
2018-12-01T04:33:25.262Z,14.00
2018-12-01T04:35:53.503Z,15.10
2018-12-01T04:38:21.707Z,17.50
2018-12-01T04:40:49.937Z,15.63
2018-12-01T04:43:18.135Z,14.30
2018-12-01T04:45:46.346Z,15.33
2018-12-01T04:48:14.641Z,14.17
2018-12-01T04:50:42.808Z,13.87
2018-12-01T04:53:11.022Z,14.63
2018-12-01T04:55:39.197Z,16.50
2018-12-01T04:58:07.665Z,15.00
2018-12-01T05:00:35.872Z,18.90
2018-12-01T05:03:04.086Z,13.90
2018-12-01T05:05:32.273Z,13.47
2018-12-01T05:08:00.446Z,13.60
2018-12-01T05:10:28.819Z,15.47
2018-12-01T05:12:57.037Z,19.67
2018-12-01T05:15:25.227Z,15.17
2018-12-01T05:17:53.425Z,23.37
2018-12-01T05:20:23.508Z,15.20
2018-12-01T05:22:52.452Z,14.10
2018-12-01T05:25:20.665Z,15.43
2018-12-01T05:27:48.839Z,17.23
2018-12-01T05:30:17.079Z,19.53
2018-12-01T05:32:45.288Z,14.50
2018-12-01T05:35:19.573Z,17.83
2018-12-01T05:37:47.794Z,13.40
2018-12-01T05:40:16.008Z,15.17
2018-12-01T05:42:44.195Z,15.90
2018-12-01T05:45:14.644Z,20.83
2018-12-01T05:47:42.807Z,14.13
2018-12-01T05:50:11.723Z,13.37
2018-12-01T05:52:39.960Z,17.43
2018-12-01T05:55:09.452Z,12.97
2018-12-01T05:57:37.669Z,13.70
2018-12-01T06:00:12.989Z,16.93
2018-12-01T06:02:41.222Z,14.43
2018-12-01T06:05:10.260Z,13.87
2018-12-01T06:07:38.561Z,12.23
2018-12-01T06:10:23.241Z,15.80
2018-12-01T06:12:53.209Z,12.30
2018-12-01T06:15:21.889Z,14.23
2018-12-01T06:17:50.058Z,21.00
2018-12-01T06:20:19.569Z,13.53
2018-12-01T06:22:47.777Z,13.17
2018-12-01T06:25:17.471Z,13.20
2018-12-01T06:27:45.683Z,12.97
2018-12-01T06:30:14.962Z,13.57
2018-12-01T06:32:43.417Z,16.13
2018-12-01T06:35:11.624Z,13.93
2018-12-01T06:37:39.841Z,15.30
2018-12-01T06:40:12.453Z,13.47
2018-12-01T06:42:40.837Z,13.90
2018-12-01T06:45:10.128Z,13.67
2018-12-01T06:47:38.353Z,18.03
2018-12-01T06:50:08.739Z,16.40
2018-12-01T06:52:37.106Z,13.50
2018-12-01T06:55:06.109Z,14.67
2018-12-01T06:57:34.325Z,15.83
2018-12-01T07:00:02.523Z,12.70
2018-12-01T07:02:30.729Z,14.90
2018-12-01T07:04:58.952Z,18.87
2018-12-01T07:07:27.269Z,17.50
2018-12-01T07:09:55.593Z,15.40
2018-12-01T07:12:23.788Z,12.40
2018-12-01T07:14:52.001Z,17.83
2018-12-01T07:17:20.190Z,14.87
2018-12-01T07:19:48.414Z,14.93
2018-12-01T07:22:16.629Z,12.60
2018-12-01T07:24:44.802Z,13.03
2018-12-01T07:27:13.145Z,16.07
2018-12-01T07:29:41.385Z,14.53
2018-12-01T07:32:09.669Z,17.70
2018-12-01T07:34:37.905Z,18.90
2018-12-01T07:37:06.164Z,19.23
2018-12-01T07:39:34.392Z,14.17
2018-12-01T07:42:02.606Z,25.67
2018-12-01T07:44:30.768Z,16.97
2018-12-01T07:46:58.957Z,15.27
2018-12-01T07:49:27.225Z,14.90
2018-12-01T07:51:55.475Z,20.33
2018-12-01T07:54:23.662Z,14.13
2018-12-01T07:56:51.829Z,19.50
2018-12-01T07:59:20.049Z,13.50
2018-12-01T08:01:48.261Z,18.60
2018-12-01T08:04:16.514Z,14.90
2018-12-01T08:06:44.756Z,15.23
2018-12-01T08:09:12.989Z,14.87
2018-12-01T08:11:41.161Z,16.90
2018-12-01T08:14:09.381Z,14.87
2018-12-01T08:16:37.600Z,15.50
2018-12-01T08:19:05.920Z,15.33
2018-12-01T08:21:34.121Z,15.23
2018-12-01T08:24:02.338Z,15.97
2018-12-01T08:26:30.530Z,14.00
2018-12-01T08:28:58.715Z,14.70
2018-12-01T08:31:26.911Z,17.07
2018-12-01T08:33:55.113Z,15.47
2018-12-01T08:36:23.353Z,16.60
2018-12-01T08:38:51.567Z,17.10
2018-12-01T08:41:19.762Z,15.90
2018-12-01T08:43:47.952Z,17.23
2018-12-01T08:46:16.191Z,13.93
2018-12-01T08:48:44.418Z,13.87
2018-12-01T08:51:12.665Z,16.00
2018-12-01T08:53:40.879Z,14.47
2018-12-01T08:56:09.142Z,13.97
2018-12-01T08:58:37.332Z,14.90
2018-12-01T09:01:06.370Z,14.13
2018-12-01T09:03:34.573Z,12.43
2018-12-01T09:06:02.818Z,14.20
2018-12-01T09:08:31.033Z,20.13
2018-12-01T09:10:59.256Z,13.30
2018-12-01T09:13:27.501Z,13.93
2018-12-01T09:15:55.737Z,12.93
2018-12-01T09:18:23.973Z,12.40
2018-12-01T09:20:52.241Z,13.77
2018-12-01T09:23:20.465Z,16.40
2018-12-01T09:25:48.677Z,13.13
2018-12-01T09:28:16.930Z,14.87
2018-12-01T09:30:45.126Z,13.03
2018-12-01T09:33:13.361Z,13.77
2018-12-01T09:35:41.537Z,15.90
2018-12-01T09:38:09.725Z,13.70
2018-12-01T09:40:37.947Z,13.50
2018-12-01T09:43:06.645Z,12.70
2018-12-01T09:45:34.855Z,14.30
2018-12-01T09:48:03.049Z,11.83
2018-12-01T09:50:31.284Z,15.40
2018-12-01T09:52:59.469Z,15.83
2018-12-01T09:55:28.894Z,17.97
2018-12-01T09:57:57.748Z,13.90
2018-12-01T10:00:33.101Z,14.43
2018-12-01T10:03:02.583Z,20.93
2018-12-01T10:05:31.374Z,15.50
2018-12-01T10:07:59.558Z,14.07
2018-12-01T10:10:27.800Z,13.70
2018-12-01T10:12:56.812Z,17.17
2018-12-01T10:15:33.992Z,12.83
2018-12-01T10:18:02.182Z,13.67
2018-12-01T10:20:31.673Z,12.53
2018-12-01T10:23:00.886Z,15.40
2018-12-01T10:25:29.100Z,13.00
2018-12-01T10:27:57.395Z,13.33
2018-12-01T10:30:32.217Z,15.20
2018-12-01T10:33:00.412Z,13.13
2018-12-01T10:35:28.682Z,13.87
2018-12-01T10:37:58.314Z,18.30
2018-12-01T10:40:26.667Z,13.00
2018-12-01T10:42:54.991Z,13.03
2018-12-01T10:45:23.670Z,13.00
2018-12-01T10:47:52.057Z,14.73
2018-12-01T10:50:21.501Z,12.20
2018-12-01T10:52:50.999Z,12.60
2018-12-01T10:55:25.272Z,19.97
2018-12-01T10:57:56.866Z,13.80
2018-12-01T11:00:30.344Z,14.57
2018-12-01T11:05:11.830Z,11.30
2018-12-01T11:07:40.050Z,12.40
2018-12-01T11:10:09.118Z,13.20
2018-12-01T11:12:37.592Z,12.40
2018-12-01T11:15:07.488Z,14.60
2018-12-01T11:17:35.682Z,11.70
2018-12-01T11:20:05.174Z,14.10
2018-12-01T11:22:33.337Z,11.13
2018-12-01T11:25:01.621Z,13.43
2018-12-01T11:27:29.792Z,11.80
2018-12-01T11:29:58.042Z,9.47
2018-12-01T11:32:26.284Z,10.20
2018-12-01T11:34:54.481Z,9.50
2018-12-01T11:37:22.678Z,8.60
2018-12-01T11:39:50.869Z,7.97
2018-12-01T11:42:19.256Z,8.10
2018-12-01T11:44:47.488Z,9.37
2018-12-01T11:47:15.694Z,8.87
2018-12-01T11:49:43.874Z,8.87
2018-12-01T11:52:12.102Z,8.47
2018-12-01T11:54:40.705Z,8.40
2018-12-01T11:57:08.908Z,7.83
2018-12-01T11:59:37.110Z,8.40
2018-12-01T12:02:05.563Z,8.33
2018-12-01T12:04:33.743Z,8.07
2018-12-01T12:07:01.950Z,8.00
2018-12-01T12:09:30.266Z,7.97
2018-12-01T12:11:58.454Z,8.27
2018-12-01T12:14:26.637Z,7.57
2018-12-01T12:16:54.837Z,7.87
2018-12-01T12:19:23.042Z,8.17
2018-12-01T12:21:51.205Z,7.10
2018-12-01T12:24:19.403Z,8.03
2018-12-01T12:26:47.605Z,8.27
2018-12-01T12:29:15.836Z,8.00
2018-12-01T12:31:44.172Z,7.40
2018-12-01T12:34:12.348Z,7.50
2018-12-01T12:36:40.525Z,6.83
2018-12-01T12:39:08.706Z,7.53
2018-12-01T12:41:36.897Z,7.27
2018-12-01T12:44:05.658Z,8.60
2018-12-01T12:46:34.097Z,7.30
2018-12-01T12:49:02.068Z,7.07
2018-12-01T12:51:30.261Z,7.40
2018-12-01T12:53:58.435Z,7.10
2018-12-01T12:56:26.613Z,7.93
2018-12-01T12:58:54.797Z,9.07
2018-12-01T13:01:22.973Z,7.10
2018-12-01T13:03:51.202Z,6.30
2018-12-01T13:06:19.449Z,6.70
2018-12-01T13:08:47.732Z,7.67
2018-12-01T13:11:15.973Z,7.17
2018-12-01T13:13:44.321Z,7.50
2018-12-01T13:16:12.603Z,6.67
2018-12-01T13:18:41.218Z,7.10
2018-12-01T13:21:09.536Z,7.47
2018-12-01T13:23:37.847Z,7.83
2018-12-01T13:26:06.369Z,8.70
2018-12-01T13:28:34.874Z,10.90
2018-12-01T13:31:03.320Z,7.27
2018-12-01T13:33:31.822Z,6.90
2018-12-01T13:36:00.050Z,7.97
2018-12-01T13:38:28.502Z,6.80
2018-12-01T13:40:56.831Z,6.67
2018-12-01T13:43:25.209Z,7.10
2018-12-01T13:45:53.741Z,6.83
2018-12-01T13:48:22.277Z,7.17
2018-12-01T13:50:50.680Z,6.60
2018-12-01T13:53:18.918Z,7.20
2018-12-01T13:55:47.284Z,7.27
2018-12-01T13:58:15.824Z,7.00
2018-12-01T14:00:44.216Z,7.17
2018-12-01T14:03:12.507Z,6.73
2018-12-01T14:05:42.181Z,7.40
2018-12-01T14:08:10.396Z,6.80
2018-12-01T14:10:47.130Z,7.10
2018-12-01T14:13:15.593Z,7.73
2018-12-01T14:15:43.834Z,5.43
2018-12-01T14:18:13.384Z,6.60
2018-12-01T14:20:41.687Z,6.90
2018-12-01T14:23:10.013Z,13.17
2018-12-01T14:25:38.268Z,6.90
2018-12-01T14:28:09.048Z,7.17
2018-12-01T14:30:37.413Z,7.07
2018-12-01T14:33:06.244Z,7.37
2018-12-01T14:35:35.964Z,7.63
2018-12-01T14:38:08.010Z,7.23
2018-12-01T14:40:36.834Z,6.93
2018-12-01T14:43:05.010Z,7.33
2018-12-01T14:45:33.258Z,7.63
2018-12-01T14:48:01.475Z,7.50
2018-12-01T14:50:30.522Z,7.77
2018-12-01T14:52:58.733Z,7.90
2018-12-01T14:55:26.928Z,7.63
2018-12-01T14:57:55.113Z,7.27
2018-12-01T15:00:24.254Z,7.30
2018-12-01T15:02:53.442Z,7.10
2018-12-01T15:05:21.623Z,7.57
2018-12-01T15:07:50.282Z,7.17
2018-12-01T15:10:19.481Z,8.10
2018-12-01T15:12:47.772Z,8.10
2018-12-01T15:15:17.787Z,7.70
2018-12-01T15:17:45.327Z,7.63
2018-12-01T15:20:19.484Z,8.07
2018-12-01T15:22:50.780Z,7.70
2018-12-01T15:25:25.006Z,7.53
2018-12-01T15:27:53.222Z,7.23
2018-12-01T15:30:23.412Z,8.37
2018-12-01T15:32:58.973Z,8.83
2018-12-01T15:35:27.165Z,8.40
2018-12-01T15:37:55.390Z,8.90
2018-12-01T15:40:23.570Z,8.70
2018-12-01T15:42:51.949Z,8.40
2018-12-01T15:45:21.065Z,8.97
2018-12-01T15:47:49.286Z,9.53
2018-12-01T15:50:19.458Z,9.40
2018-12-01T15:52:50.255Z,9.27
2018-12-01T15:55:18.492Z,11.47
2018-12-01T15:57:46.712Z,9.20
2018-12-01T16:00:21.786Z,9.40
2018-12-01T16:02:50.178Z,9.53
2018-12-01T16:05:19.209Z,9.33
2018-12-01T16:07:48.367Z,10.37
2018-12-01T16:10:17.733Z,11.97
2018-12-01T16:12:47.240Z,9.87
2018-12-01T16:15:20.865Z,9.33
2018-12-01T16:17:49.048Z,12.33
2018-12-01T16:20:17.319Z,9.93
2018-12-01T16:22:45.601Z,10.70
2018-12-01T16:25:15.486Z,10.83
2018-12-01T16:27:44.862Z,10.07
2018-12-01T16:30:34.624Z,9.93
2018-12-01T16:33:05.066Z,11.07
2018-12-01T16:35:33.314Z,10.17
2018-12-01T16:38:01.566Z,11.43
2018-12-01T16:40:35.553Z,12.57
2018-12-01T16:43:06.229Z,11.57
2018-12-01T16:45:34.525Z,10.40
2018-12-01T16:48:02.744Z,10.63
2018-12-01T16:50:30.945Z,10.43
2018-12-01T16:52:59.145Z,10.40
2018-12-01T16:55:27.350Z,11.20
2018-12-01T16:57:55.579Z,11.30
2018-12-01T17:00:23.768Z,11.33
2018-12-01T17:02:53.640Z,11.40
2018-12-01T17:05:22.946Z,11.73
2018-12-01T17:07:51.284Z,11.67
2018-12-01T17:10:20.971Z,11.87
2018-12-01T17:12:50.612Z,11.40
2018-12-01T17:15:19.734Z,11.40
2018-12-01T17:17:48.042Z,10.90
2018-12-01T17:20:16.930Z,11.07
2018-12-01T17:23:01.954Z,11.57
2018-12-01T17:25:30.226Z,10.67
2018-12-01T17:27:59.355Z,11.93
2018-12-01T17:30:29.701Z,10.17
2018-12-01T17:32:59.117Z,10.60
2018-12-01T17:35:29.773Z,11.37
2018-12-01T17:38:00.325Z,10.63
2018-12-01T17:40:49.827Z,11.20
2018-12-01T17:43:20.265Z,12.33
2018-12-01T17:45:48.670Z,11.70
2018-12-01T17:48:16.887Z,10.63
2018-12-01T17:50:45.361Z,11.50
2018-12-01T17:53:13.550Z,12.90
2018-12-01T17:55:41.974Z,12.13
2018-12-01T17:58:10.905Z,10.83
2018-12-01T18:00:40.211Z,11.40
2018-12-01T18:03:08.981Z,11.10
2018-12-01T18:05:38.923Z,11.70
2018-12-01T18:08:11.661Z,11.57
2018-12-01T18:10:40.217Z,11.70
2018-12-01T18:13:09.039Z,11.50
2018-12-01T18:15:38.103Z,11.93
2018-12-01T18:18:06.758Z,12.00
2018-12-01T18:20:35.183Z,12.47
2018-12-01T18:23:03.775Z,11.23
2018-12-01T18:25:40.247Z,12.93
2018-12-01T18:28:09.711Z,12.73
2018-12-01T18:30:39.299Z,11.37
2018-12-01T18:33:17.923Z,14.17
2018-12-01T18:35:46.280Z,11.90
2018-12-01T18:38:14.495Z,11.03
2018-12-01T18:40:42.729Z,13.20
2018-12-01T18:43:11.229Z,11.50
2018-12-01T18:45:43.428Z,11.00
2018-12-01T18:48:11.683Z,13.30
2018-12-01T18:50:39.924Z,10.57
2018-12-01T18:53:09.381Z,11.50
2018-12-01T18:55:39.074Z,10.80
2018-12-01T18:58:08.826Z,11.33
2018-12-01T19:00:40.753Z,12.90
2018-12-01T19:03:10.109Z,11.60
2018-12-01T19:05:38.658Z,12.70
2018-12-01T19:08:07.221Z,10.80
2018-12-01T19:10:35.839Z,11.33
2018-12-01T19:13:04.233Z,12.60
2018-12-01T19:15:32.833Z,11.73
2018-12-01T19:18:01.484Z,11.40
2018-12-01T19:20:30.708Z,12.53
2018-12-01T19:22:59.390Z,11.47
2018-12-01T19:25:27.775Z,10.97
2018-12-01T19:27:56.741Z,11.37
2018-12-01T19:30:25.442Z,11.33
2018-12-01T19:32:57.853Z,11.07
2018-12-01T19:35:26.285Z,10.67
2018-12-01T19:37:55.256Z,11.23
2018-12-01T19:40:28.577Z,10.90
2018-12-01T19:42:53.308Z,11.27
2018-12-01T19:45:21.529Z,10.77
2018-12-01T19:47:49.765Z,10.80
2018-12-01T19:50:28.015Z,10.73
2018-12-01T19:52:56.268Z,11.00
2018-12-01T19:55:25.665Z,10.83
2018-12-01T19:57:54.093Z,10.10
2018-12-01T20:00:26.578Z,10.97
2018-12-01T20:02:55.461Z,10.47
2018-12-01T20:05:23.697Z,11.00
2018-12-01T20:07:52.588Z,10.43
2018-12-01T20:10:26.494Z,11.10
2018-12-01T20:12:57.353Z,11.07
2018-12-01T20:15:32.438Z,11.20
2018-12-01T20:18:02.589Z,11.00
2018-12-01T20:20:30.861Z,10.97
2018-12-01T20:22:59.126Z,13.77
2018-12-01T20:25:27.434Z,11.60
2018-12-01T20:27:55.842Z,11.43
2018-12-01T20:30:24.125Z,11.50
2018-12-01T20:32:52.474Z,11.03
2018-12-01T20:35:24.762Z,11.70
2018-12-01T20:37:58.510Z,10.70
2018-12-01T20:40:26.704Z,10.77
2018-12-01T20:42:54.955Z,10.30
2018-12-01T20:45:23.417Z,10.03
2018-12-01T20:47:52.044Z,10.90
2018-12-01T20:50:20.640Z,10.23
2018-12-01T20:52:49.444Z,12.47
2018-12-01T20:55:20.611Z,9.73
2018-12-01T20:57:53.775Z,10.77
2018-12-01T21:00:22.736Z,11.67
2018-12-01T21:02:51.250Z,10.37
2018-12-01T21:05:21.138Z,10.87
2018-12-01T21:07:49.985Z,10.20
2018-12-01T21:10:24.077Z,10.80
2018-12-01T21:12:52.649Z,10.10
2018-12-01T21:15:20.930Z,10.60
2018-12-01T21:17:49.385Z,9.60
2018-12-01T21:20:18.401Z,10.30
2018-12-01T21:22:49.049Z,9.40
2018-12-01T21:25:19.126Z,10.60
2018-12-01T21:27:47.501Z,10.70
2018-12-01T21:30:18.764Z,10.50
2018-12-01T21:35:39.487Z,10.60
2018-12-01T21:38:11.328Z,10.33
2018-12-01T21:40:40.274Z,10.60
2018-12-01T21:43:08.852Z,10.00
2018-12-01T21:45:37.075Z,9.47
2018-12-01T21:48:07.322Z,9.47
2018-12-01T21:50:35.594Z,10.00
2018-12-01T21:53:03.809Z,9.60
2018-12-01T21:55:32.036Z,9.43
2018-12-01T21:58:00.211Z,9.60
2018-12-01T22:00:30.338Z,9.30
2018-12-01T22:03:03.067Z,9.70
2018-12-01T22:05:39.272Z,9.37
2018-12-01T22:08:08.955Z,9.60
2018-12-01T22:10:37.172Z,10.00
2018-12-01T22:13:05.378Z,9.47
2018-12-01T22:15:33.566Z,9.80
2018-12-01T22:18:01.728Z,9.50
2018-12-01T22:20:30.155Z,10.37
2018-12-01T22:22:58.315Z,9.27
2018-12-01T22:25:26.477Z,9.20
2018-12-01T22:27:54.657Z,10.10
2018-12-01T22:30:23.466Z,9.93
2018-12-01T22:32:53.162Z,9.40
2018-12-01T22:35:22.548Z,10.20
2018-12-01T22:37:51.353Z,9.93
2018-12-01T22:40:30.802Z,9.70
2018-12-01T22:43:02.129Z,10.60
2018-12-01T22:45:30.433Z,8.97
2018-12-01T22:47:59.406Z,9.57
2018-12-01T22:50:27.581Z,8.97
2018-12-01T22:52:56.154Z,9.83
2018-12-01T22:55:25.466Z,9.10
2018-12-01T22:58:26.270Z,10.97
2018-12-01T23:00:56.665Z,9.20
2018-12-01T23:03:26.169Z,9.77
2018-12-01T23:05:54.365Z,10.03
2018-12-01T23:08:23.694Z,9.50
2018-12-01T23:10:51.894Z,8.60
2018-12-01T23:13:20.238Z,9.43
2018-12-01T23:15:48.551Z,10.00
2018-12-01T23:18:18.058Z,8.80
2018-12-01T23:20:47.257Z,9.40
2018-12-01T23:23:15.634Z,9.40
2018-12-01T23:25:43.842Z,9.20
2018-12-01T23:28:12.028Z,9.50
2018-12-01T23:30:41.904Z,9.37
2018-12-01T23:33:12.628Z,9.00
2018-12-01T23:35:41.106Z,8.80
2018-12-01T23:38:09.390Z,9.50
2018-12-01T23:40:38.877Z,9.30
2018-12-01T23:43:07.072Z,9.20
2018-12-01T23:45:35.655Z,8.93
2018-12-01T23:48:04.666Z,9.13
2018-12-01T23:50:31.985Z,8.40
2018-12-01T23:53:01.609Z,9.60
2018-12-01T23:55:29.777Z,9.07
2018-12-01T23:57:57.937Z,8.80
